sensor_id;sensor_type;location;lat;lon;timestamp;temperature;humidity
3334;DHT22;1679;50.392;8.008;2023-12-20T00:01:41;5.60;99.90
3334;DHT22;1679;50.392;8.008;2023-12-20T00:04:06;5.50;99.90
3334;DHT22;1679;50.392;8.008;2023-12-20T00:06:32;5.60;99.90
3334;DHT22;1679;50.392;8.008;2023-12-20T00:08:57;5.60;99.90
3334;DHT22;1679;50.392;8.008;2023-12-20T00:11:23;5.60;99.90
3334;DHT22;1679;50.392;8.008;2023-12-20T00:13:49;5.60;99.90
3334;DHT22;1679;50.392;8.008;2023-12-20T00:16:14;5.60;99.90
3334;DHT22;1679;50.392;8.008;2023-12-20T00:18:40;5.60;99.90
3334;DHT22;1679;50.392;8.008;2023-12-20T00:21:05;5.50;99.90
3334;DHT22;1679;50.392;8.008;2023-12-20T00:23:31;5.50;99.90
3334;DHT22;1679;50.392;8.008;2023-12-20T00:25:57;5.60;99.90
3334;DHT22;1679;50.392;8.008;2023-12-20T00:28:22;5.60;99.90
3334;DHT22;1679;50.392;8.008;2023-12-20T00:30:48;5.60;99.90
3334;DHT22;1679;50.392;8.008;2023-12-20T00:33:13;5.60;99.90
3334;DHT22;1679;50.392;8.008;2023-12-20T00:35:39;5.60;99.90
3334;DHT22;1679;50.392;8.008;2023-12-20T00:38:05;5.60;99.90
3334;DHT22;1679;50.392;8.008;2023-12-20T00:40:32;5.60;99.90
3334;DHT22;1679;50.392;8.008;2023-12-20T00:42:58;5.60;99.90
3334;DHT22;1679;50.392;8.008;2023-12-20T00:45:23;5.60;99.90
3334;DHT22;1679;50.392;8.008;2023-12-20T00:47:49;5.50;99.90
3334;DHT22;1679;50.392;8.008;2023-12-20T00:50:15;5.50;99.90
3334;DHT22;1679;50.392;8.008;2023-12-20T00:52:40;5.50;99.90
3334;DHT22;1679;50.392;8.008;2023-12-20T00:55:06;5.50;99.90
3334;DHT22;1679;50.392;8.008;2023-12-20T00:57:32;5.50;99.90
3334;DHT22;1679;50.392;8.008;2023-12-20T00:59:57;5.50;99.90
3334;DHT22;1679;50.392;8.008;2023-12-20T01:02:22;5.50;99.90
3334;DHT22;1679;50.392;8.008;2023-12-20T01:04:48;5.50;99.90
3334;DHT22;1679;50.392;8.008;2023-12-20T01:07:13;5.50;99.90
3334;DHT22;1679;50.392;8.008;2023-12-20T01:09:39;5.50;99.90
3334;DHT22;1679;50.392;8.008;2023-12-20T01:12:05;5.50;99.90
3334;DHT22;1679;50.392;8.008;2023-12-20T01:14:30;5.50;99.90
3334;DHT22;1679;50.392;8.008;2023-12-20T01:16:56;5.50;99.90
3334;DHT22;1679;50.392;8.008;2023-12-20T01:19:21;5.50;99.90
3334;DHT22;1679;50.392;8.008;2023-12-20T01:21:47;5.50;99.90
3334;DHT22;1679;50.392;8.008;2023-12-20T01:24:12;5.50;99.90
3334;DHT22;1679;50.392;8.008;2023-12-20T01:26:38;5.50;99.90
3334;DHT22;1679;50.392;8.008;2023-12-20T01:29:03;5.50;99.90
3334;DHT22;1679;50.392;8.008;2023-12-20T01:31:29;5.50;99.90
3334;DHT22;1679;50.392;8.008;2023-12-20T01:33:54;5.50;99.90
3334;DHT22;1679;50.392;8.008;2023-12-20T01:36:20;5.50;99.90
3334;DHT22;1679;50.392;8.008;2023-12-20T01:38:45;5.40;99.90
3334;DHT22;1679;50.392;8.008;2023-12-20T01:41:11;5.40;99.90
3334;DHT22;1679;50.392;8.008;2023-12-20T01:43:36;5.40;99.90
3334;DHT22;1679;50.392;8.008;2023-12-20T01:46:02;5.30;99.90
3334;DHT22;1679;50.392;8.008;2023-12-20T01:48:28;5.30;99.90
3334;DHT22;1679;50.392;8.008;2023-12-20T01:50:54;5.30;99.90
3334;DHT22;1679;50.392;8.008;2023-12-20T01:53:21;5.30;99.90
3334;DHT22;1679;50.392;8.008;2023-12-20T01:55:50;5.30;99.90
3334;DHT22;1679;50.392;8.008;2023-12-20T01:58:16;5.30;99.90
3334;DHT22;1679;50.392;8.008;2023-12-20T02:00:42;5.30;99.90
3334;DHT22;1679;50.392;8.008;2023-12-20T02:03:08;5.40;99.90
3334;DHT22;1679;50.392;8.008;2023-12-20T02:05:35;5.40;99.90
3334;DHT22;1679;50.392;8.008;2023-12-20T02:08:02;5.40;99.90
3334;DHT22;1679;50.392;8.008;2023-12-20T02:10:27;5.50;99.90
3334;DHT22;1679;50.392;8.008;2023-12-20T02:12:54;5.50;99.90
3334;DHT22;1679;50.392;8.008;2023-12-20T02:15:20;5.50;99.90
3334;DHT22;1679;50.392;8.008;2023-12-20T02:17:47;5.50;99.90
3334;DHT22;1679;50.392;8.008;2023-12-20T02:20:12;5.50;99.90
3334;DHT22;1679;50.392;8.008;2023-12-20T02:22:38;5.50;99.90
3334;DHT22;1679;50.392;8.008;2023-12-20T02:25:04;5.60;99.90
3334;DHT22;1679;50.392;8.008;2023-12-20T02:27:30;5.60;99.90
3334;DHT22;1679;50.392;8.008;2023-12-20T02:29:55;5.60;99.90
3334;DHT22;1679;50.392;8.008;2023-12-20T02:32:22;5.60;99.90
3334;DHT22;1679;50.392;8.008;2023-12-20T02:34:51;5.60;99.90
3334;DHT22;1679;50.392;8.008;2023-12-20T02:37:17;5.60;99.90
3334;DHT22;1679;50.392;8.008;2023-12-20T02:39:42;5.50;99.90
3334;DHT22;1679;50.392;8.008;2023-12-20T02:42:08;5.60;99.90
3334;DHT22;1679;50.392;8.008;2023-12-20T02:44:33;5.60;99.90
3334;DHT22;1679;50.392;8.008;2023-12-20T02:46:59;5.60;99.90
3334;DHT22;1679;50.392;8.008;2023-12-20T02:49:24;5.60;99.90
3334;DHT22;1679;50.392;8.008;2023-12-20T02:51:50;5.60;99.90
3334;DHT22;1679;50.392;8.008;2023-12-20T02:54:15;5.60;99.90
3334;DHT22;1679;50.392;8.008;2023-12-20T02:56:41;5.70;99.90
3334;DHT22;1679;50.392;8.008;2023-12-20T02:59:07;5.70;99.90
3334;DHT22;1679;50.392;8.008;2023-12-20T03:01:33;5.70;99.90
3334;DHT22;1679;50.392;8.008;2023-12-20T03:03:59;5.80;99.90
3334;DHT22;1679;50.392;8.008;2023-12-20T03:06:25;5.70;99.90
3334;DHT22;1679;50.392;8.008;2023-12-20T03:08:50;5.80;99.90
3334;DHT22;1679;50.392;8.008;2023-12-20T03:11:16;5.80;99.90
3334;DHT22;1679;50.392;8.008;2023-12-20T03:13:41;5.80;99.90
3334;DHT22;1679;50.392;8.008;2023-12-20T03:16:11;5.80;99.90
3334;DHT22;1679;50.392;8.008;2023-12-20T03:18:37;5.80;99.90
3334;DHT22;1679;50.392;8.008;2023-12-20T03:21:03;5.80;99.90
3334;DHT22;1679;50.392;8.008;2023-12-20T03:23:30;5.80;99.90
3334;DHT22;1679;50.392;8.008;2023-12-20T03:25:56;5.80;99.90
3334;DHT22;1679;50.392;8.008;2023-12-20T03:28:22;5.70;99.90
3334;DHT22;1679;50.392;8.008;2023-12-20T03:30:48;5.60;99.90
3334;DHT22;1679;50.392;8.008;2023-12-20T03:33:14;5.70;99.90
3334;DHT22;1679;50.392;8.008;2023-12-20T03:35:39;5.70;99.90
3334;DHT22;1679;50.392;8.008;2023-12-20T03:38:05;5.70;99.90
3334;DHT22;1679;50.392;8.008;2023-12-20T03:40:30;5.70;99.90
3334;DHT22;1679;50.392;8.008;2023-12-20T03:42:56;5.70;99.90
3334;DHT22;1679;50.392;8.008;2023-12-20T03:45:21;5.80;99.90
3334;DHT22;1679;50.392;8.008;2023-12-20T03:47:47;5.80;99.90
3334;DHT22;1679;50.392;8.008;2023-12-20T03:50:13;5.80;99.90
3334;DHT22;1679;50.392;8.008;2023-12-20T03:52:38;5.80;99.90
3334;DHT22;1679;50.392;8.008;2023-12-20T03:55:04;5.80;99.90
3334;DHT22;1679;50.392;8.008;2023-12-20T03:57:30;5.80;99.90
3334;DHT22;1679;50.392;8.008;2023-12-20T03:59:55;5.80;99.90
3334;DHT22;1679;50.392;8.008;2023-12-20T04:02:21;5.70;99.90
3334;DHT22;1679;50.392;8.008;2023-12-20T04:04:46;5.70;99.90
3334;DHT22;1679;50.392;8.008;2023-12-20T04:07:12;5.60;99.90
3334;DHT22;1679;50.392;8.008;2023-12-20T04:09:37;5.50;99.90
3334;DHT22;1679;50.392;8.008;2023-12-20T04:12:03;5.50;99.90
3334;DHT22;1679;50.392;8.008;2023-12-20T04:14:28;5.40;99.90
3334;DHT22;1679;50.392;8.008;2023-12-20T04:16:54;5.30;99.90
3334;DHT22;1679;50.392;8.008;2023-12-20T04:19:19;5.20;99.90
3334;DHT22;1679;50.392;8.008;2023-12-20T04:21:45;5.20;99.90
3334;DHT22;1679;50.392;8.008;2023-12-20T04:24:10;5.10;99.90
3334;DHT22;1679;50.392;8.008;2023-12-20T04:26:36;5.00;99.90
3334;DHT22;1679;50.392;8.008;2023-12-20T04:29:02;5.00;99.90
3334;DHT22;1679;50.392;8.008;2023-12-20T04:31:27;5.00;99.90
3334;DHT22;1679;50.392;8.008;2023-12-20T04:33:53;4.90;99.90
3334;DHT22;1679;50.392;8.008;2023-12-20T04:36:18;5.00;99.90
3334;DHT22;1679;50.392;8.008;2023-12-20T04:38:44;4.90;99.90
3334;DHT22;1679;50.392;8.008;2023-12-20T04:41:09;5.00;99.90
3334;DHT22;1679;50.392;8.008;2023-12-20T04:43:35;4.90;99.90
3334;DHT22;1679;50.392;8.008;2023-12-20T04:46:00;5.00;99.90
3334;DHT22;1679;50.392;8.008;2023-12-20T04:48:26;5.00;99.90
3334;DHT22;1679;50.392;8.008;2023-12-20T04:50:51;5.00;99.90
3334;DHT22;1679;50.392;8.008;2023-12-20T04:53:16;5.00;99.90
3334;DHT22;1679;50.392;8.008;2023-12-20T04:55:42;5.00;99.90
3334;DHT22;1679;50.392;8.008;2023-12-20T04:58:07;5.00;99.90
3334;DHT22;1679;50.392;8.008;2023-12-20T05:00:33;5.00;99.90
3334;DHT22;1679;50.392;8.008;2023-12-20T05:02:58;5.00;99.90
3334;DHT22;1679;50.392;8.008;2023-12-20T05:05:24;5.10;99.90
3334;DHT22;1679;50.392;8.008;2023-12-20T05:07:49;4.90;99.90
3334;DHT22;1679;50.392;8.008;2023-12-20T05:10:15;4.90;99.90
3334;DHT22;1679;50.392;8.008;2023-12-20T05:12:40;4.90;99.90
3334;DHT22;1679;50.392;8.008;2023-12-20T05:15:06;4.90;99.90
3334;DHT22;1679;50.392;8.008;2023-12-20T05:17:32;4.80;99.90
3334;DHT22;1679;50.392;8.008;2023-12-20T05:19:58;4.80;99.90
3334;DHT22;1679;50.392;8.008;2023-12-20T05:22:23;4.70;99.90
3334;DHT22;1679;50.392;8.008;2023-12-20T05:24:49;4.70;99.90
3334;DHT22;1679;50.392;8.008;2023-12-20T05:27:14;4.70;99.90
3334;DHT22;1679;50.392;8.008;2023-12-20T05:29:40;4.70;99.90
3334;DHT22;1679;50.392;8.008;2023-12-20T05:32:05;4.70;99.90
3334;DHT22;1679;50.392;8.008;2023-12-20T05:34:31;4.70;99.90
3334;DHT22;1679;50.392;8.008;2023-12-20T05:36:58;4.80;99.90
3334;DHT22;1679;50.392;8.008;2023-12-20T05:39:23;4.80;99.90
3334;DHT22;1679;50.392;8.008;2023-12-20T05:41:49;4.90;99.90
3334;DHT22;1679;50.392;8.008;2023-12-20T05:44:14;4.90;99.90
3334;DHT22;1679;50.392;8.008;2023-12-20T05:46:40;4.80;99.90
3334;DHT22;1679;50.392;8.008;2023-12-20T05:49:06;4.90;99.90
3334;DHT22;1679;50.392;8.008;2023-12-20T05:51:32;4.90;99.90
3334;DHT22;1679;50.392;8.008;2023-12-20T05:53:58;4.90;99.90
3334;DHT22;1679;50.392;8.008;2023-12-20T05:56:23;4.80;99.90
3334;DHT22;1679;50.392;8.008;2023-12-20T05:58:49;4.90;99.90
3334;DHT22;1679;50.392;8.008;2023-12-20T06:01:15;4.90;99.90
3334;DHT22;1679;50.392;8.008;2023-12-20T06:03:42;4.80;99.90
3334;DHT22;1679;50.392;8.008;2023-12-20T06:06:08;4.70;99.90
3334;DHT22;1679;50.392;8.008;2023-12-20T06:08:34;4.80;99.90
3334;DHT22;1679;50.392;8.008;2023-12-20T06:10:59;4.70;99.90
3334;DHT22;1679;50.392;8.008;2023-12-20T06:13:25;4.70;99.90
3334;DHT22;1679;50.392;8.008;2023-12-20T06:15:51;4.80;99.90
3334;DHT22;1679;50.392;8.008;2023-12-20T06:18:17;4.80;99.90
3334;DHT22;1679;50.392;8.008;2023-12-20T06:20:42;4.70;99.90
3334;DHT22;1679;50.392;8.008;2023-12-20T06:23:08;4.70;99.90
3334;DHT22;1679;50.392;8.008;2023-12-20T06:25:33;4.70;99.90
3334;DHT22;1679;50.392;8.008;2023-12-20T06:28:02;4.70;99.90
3334;DHT22;1679;50.392;8.008;2023-12-20T06:30:28;4.70;99.90
3334;DHT22;1679;50.392;8.008;2023-12-20T06:32:54;4.70;99.90
3334;DHT22;1679;50.392;8.008;2023-12-20T06:35:20;4.70;99.90
3334;DHT22;1679;50.392;8.008;2023-12-20T06:37:45;4.70;99.90
3334;DHT22;1679;50.392;8.008;2023-12-20T06:40:11;4.70;99.90
3334;DHT22;1679;50.392;8.008;2023-12-20T06:42:37;4.70;99.90
3334;DHT22;1679;50.392;8.008;2023-12-20T06:45:03;4.80;99.90
3334;DHT22;1679;50.392;8.008;2023-12-20T06:47:29;4.80;99.90
3334;DHT22;1679;50.392;8.008;2023-12-20T06:49:54;4.80;99.90
3334;DHT22;1679;50.392;8.008;2023-12-20T06:52:20;4.90;99.90
3334;DHT22;1679;50.392;8.008;2023-12-20T06:54:45;4.90;99.90
3334;DHT22;1679;50.392;8.008;2023-12-20T06:57:11;4.90;99.90
3334;DHT22;1679;50.392;8.008;2023-12-20T06:59:40;4.90;99.90
3334;DHT22;1679;50.392;8.008;2023-12-20T07:02:06;4.90;99.90
3334;DHT22;1679;50.392;8.008;2023-12-20T07:04:31;4.90;99.90
3334;DHT22;1679;50.392;8.008;2023-12-20T07:06:58;5.00;99.90
3334;DHT22;1679;50.392;8.008;2023-12-20T07:09:26;5.00;99.90
3334;DHT22;1679;50.392;8.008;2023-12-20T07:11:52;4.90;99.90
3334;DHT22;1679;50.392;8.008;2023-12-20T07:14:17;4.90;99.90
3334;DHT22;1679;50.392;8.008;2023-12-20T07:16:43;4.90;99.90
3334;DHT22;1679;50.392;8.008;2023-12-20T07:19:08;5.00;99.90
3334;DHT22;1679;50.392;8.008;2023-12-20T07:21:34;4.90;99.90
3334;DHT22;1679;50.392;8.008;2023-12-20T07:23:59;4.90;99.90
3334;DHT22;1679;50.392;8.008;2023-12-20T07:26:25;4.90;99.90
3334;DHT22;1679;50.392;8.008;2023-12-20T07:28:50;4.90;99.90
3334;DHT22;1679;50.392;8.008;2023-12-20T07:31:16;4.90;99.90
3334;DHT22;1679;50.392;8.008;2023-12-20T07:33:42;4.80;99.90
3334;DHT22;1679;50.392;8.008;2023-12-20T07:36:07;4.90;99.90
3334;DHT22;1679;50.392;8.008;2023-12-20T07:38:33;4.90;99.90
3334;DHT22;1679;50.392;8.008;2023-12-20T07:40:59;5.00;99.90
3334;DHT22;1679;50.392;8.008;2023-12-20T07:43:24;4.90;99.90
3334;DHT22;1679;50.392;8.008;2023-12-20T07:45:50;5.00;99.90
3334;DHT22;1679;50.392;8.008;2023-12-20T07:48:15;5.00;99.90
3334;DHT22;1679;50.392;8.008;2023-12-20T07:50:41;5.00;99.90
3334;DHT22;1679;50.392;8.008;2023-12-20T07:53:07;5.00;99.90
3334;DHT22;1679;50.392;8.008;2023-12-20T07:55:33;5.10;99.90
3334;DHT22;1679;50.392;8.008;2023-12-20T07:57:59;5.10;99.90
3334;DHT22;1679;50.392;8.008;2023-12-20T08:00:24;5.10;99.90
3334;DHT22;1679;50.392;8.008;2023-12-20T08:02:50;5.10;99.90
3334;DHT22;1679;50.392;8.008;2023-12-20T08:05:15;5.10;99.90
3334;DHT22;1679;50.392;8.008;2023-12-20T08:07:41;5.00;99.90
3334;DHT22;1679;50.392;8.008;2023-12-20T08:10:06;5.00;99.90
3334;DHT22;1679;50.392;8.008;2023-12-20T08:12:32;4.90;99.90
3334;DHT22;1679;50.392;8.008;2023-12-20T08:14:59;4.90;99.90
3334;DHT22;1679;50.392;8.008;2023-12-20T08:17:24;5.00;99.90
3334;DHT22;1679;50.392;8.008;2023-12-20T08:19:50;5.10;99.90
3334;DHT22;1679;50.392;8.008;2023-12-20T08:22:16;5.10;99.90
3334;DHT22;1679;50.392;8.008;2023-12-20T08:24:41;5.10;99.90
3334;DHT22;1679;50.392;8.008;2023-12-20T08:27:07;5.20;99.90
3334;DHT22;1679;50.392;8.008;2023-12-20T08:29:32;5.20;99.90
3334;DHT22;1679;50.392;8.008;2023-12-20T08:31:59;5.20;99.90
3334;DHT22;1679;50.392;8.008;2023-12-20T08:34:25;5.30;99.90
3334;DHT22;1679;50.392;8.008;2023-12-20T08:36:50;5.30;99.90
3334;DHT22;1679;50.392;8.008;2023-12-20T08:39:16;5.30;99.90
3334;DHT22;1679;50.392;8.008;2023-12-20T08:41:42;5.30;99.90
3334;DHT22;1679;50.392;8.008;2023-12-20T08:44:08;5.30;99.90
3334;DHT22;1679;50.392;8.008;2023-12-20T08:46:34;5.30;99.90
3334;DHT22;1679;50.392;8.008;2023-12-20T08:49:00;5.30;99.90
3334;DHT22;1679;50.392;8.008;2023-12-20T08:51:26;5.30;99.90
3334;DHT22;1679;50.392;8.008;2023-12-20T08:53:52;5.30;99.90
3334;DHT22;1679;50.392;8.008;2023-12-20T08:56:18;5.30;99.90
3334;DHT22;1679;50.392;8.008;2023-12-20T08:58:45;5.30;99.90
3334;DHT22;1679;50.392;8.008;2023-12-20T09:01:11;5.40;99.90
3334;DHT22;1679;50.392;8.008;2023-12-20T09:03:36;5.40;99.90
3334;DHT22;1679;50.392;8.008;2023-12-20T09:06:02;5.40;99.90
3334;DHT22;1679;50.392;8.008;2023-12-20T09:08:28;5.40;99.90
3334;DHT22;1679;50.392;8.008;2023-12-20T09:10:53;5.50;99.90
3334;DHT22;1679;50.392;8.008;2023-12-20T09:13:19;5.50;99.90
3334;DHT22;1679;50.392;8.008;2023-12-20T09:15:45;5.60;99.90
3334;DHT22;1679;50.392;8.008;2023-12-20T09:18:11;5.60;99.90
3334;DHT22;1679;50.392;8.008;2023-12-20T09:20:36;5.70;99.90
3334;DHT22;1679;50.392;8.008;2023-12-20T09:23:02;5.80;99.90
3334;DHT22;1679;50.392;8.008;2023-12-20T09:25:28;5.90;99.90
3334;DHT22;1679;50.392;8.008;2023-12-20T09:27:54;5.90;99.90
3334;DHT22;1679;50.392;8.008;2023-12-20T09:30:20;5.90;99.90
3334;DHT22;1679;50.392;8.008;2023-12-20T09:32:45;6.00;99.90
3334;DHT22;1679;50.392;8.008;2023-12-20T09:35:11;6.10;99.90
3334;DHT22;1679;50.392;8.008;2023-12-20T09:37:36;6.00;99.90
3334;DHT22;1679;50.392;8.008;2023-12-20T09:40:03;6.00;99.90
3334;DHT22;1679;50.392;8.008;2023-12-20T09:42:44;6.00;99.90
3334;DHT22;1679;50.392;8.008;2023-12-20T09:45:13;6.00;99.90
3334;DHT22;1679;50.392;8.008;2023-12-20T09:47:40;6.00;99.90
3334;DHT22;1679;50.392;8.008;2023-12-20T09:50:06;6.10;99.90
3334;DHT22;1679;50.392;8.008;2023-12-20T09:52:33;6.10;99.90
3334;DHT22;1679;50.392;8.008;2023-12-20T09:55:00;6.10;99.90
3334;DHT22;1679;50.392;8.008;2023-12-20T09:57:27;6.20;99.90
3334;DHT22;1679;50.392;8.008;2023-12-20T09:59:52;6.20;99.90
3334;DHT22;1679;50.392;8.008;2023-12-20T10:02:19;6.20;99.90
3334;DHT22;1679;50.392;8.008;2023-12-20T10:04:48;6.30;99.90
3334;DHT22;1679;50.392;8.008;2023-12-20T10:07:14;6.40;99.90
3334;DHT22;1679;50.392;8.008;2023-12-20T10:09:41;6.50;99.90
3334;DHT22;1679;50.392;8.008;2023-12-20T10:12:07;6.60;99.90
3334;DHT22;1679;50.392;8.008;2023-12-20T10:14:32;6.60;99.90
3334;DHT22;1679;50.392;8.008;2023-12-20T10:17:05;6.70;99.90
3334;DHT22;1679;50.392;8.008;2023-12-20T10:19:31;6.70;99.90
3334;DHT22;1679;50.392;8.008;2023-12-20T10:21:59;6.70;99.90
3334;DHT22;1679;50.392;8.008;2023-12-20T10:24:25;6.60;99.90
3334;DHT22;1679;50.392;8.008;2023-12-20T10:27:07;6.60;99.90
3334;DHT22;1679;50.392;8.008;2023-12-20T10:29:34;6.60;99.90
3334;DHT22;1679;50.392;8.008;2023-12-20T10:32:23;6.60;99.90
3334;DHT22;1679;50.392;8.008;2023-12-20T10:34:50;6.60;99.90
3334;DHT22;1679;50.392;8.008;2023-12-20T10:37:15;6.70;99.90
3334;DHT22;1679;50.392;8.008;2023-12-20T10:39:42;6.80;99.90
3334;DHT22;1679;50.392;8.008;2023-12-20T10:42:11;6.90;99.90
3334;DHT22;1679;50.392;8.008;2023-12-20T10:44:36;6.90;99.90
3334;DHT22;1679;50.392;8.008;2023-12-20T10:47:02;7.00;99.90
3334;DHT22;1679;50.392;8.008;2023-12-20T10:49:30;7.10;99.90
3334;DHT22;1679;50.392;8.008;2023-12-20T10:51:57;7.10;99.90
3334;DHT22;1679;50.392;8.008;2023-12-20T10:54:25;7.10;99.90
3334;DHT22;1679;50.392;8.008;2023-12-20T10:56:52;7.00;99.90
3334;DHT22;1679;50.392;8.008;2023-12-20T10:59:19;7.00;99.90
3334;DHT22;1679;50.392;8.008;2023-12-20T11:01:47;6.90;99.90
3334;DHT22;1679;50.392;8.008;2023-12-20T11:04:18;6.90;99.90
3334;DHT22;1679;50.392;8.008;2023-12-20T11:06:53;6.80;99.90
3334;DHT22;1679;50.392;8.008;2023-12-20T11:09:35;6.80;99.90
3334;DHT22;1679;50.392;8.008;2023-12-20T11:14:39;6.70;99.90
3334;DHT22;1679;50.392;8.008;2023-12-20T11:17:07;6.60;99.90
3334;DHT22;1679;50.392;8.008;2023-12-20T11:19:43;6.60;99.90
3334;DHT22;1679;50.392;8.008;2023-12-20T11:22:25;6.60;99.90
3334;DHT22;1679;50.392;8.008;2023-12-20T11:24:52;6.60;99.90
3334;DHT22;1679;50.392;8.008;2023-12-20T11:27:19;6.70;99.90
3334;DHT22;1679;50.392;8.008;2023-12-20T11:30:05;6.70;99.90
3334;DHT22;1679;50.392;8.008;2023-12-20T11:32:35;6.70;99.90
3334;DHT22;1679;50.392;8.008;2023-12-20T11:35:21;6.60;99.90
3334;DHT22;1679;50.392;8.008;2023-12-20T11:37:49;6.70;99.90
3334;DHT22;1679;50.392;8.008;2023-12-20T11:40:18;6.70;99.90
3334;DHT22;1679;50.392;8.008;2023-12-20T11:42:50;6.60;99.90
3334;DHT22;1679;50.392;8.008;2023-12-20T11:45:21;6.60;99.90
3334;DHT22;1679;50.392;8.008;2023-12-20T11:47:48;6.50;99.90
3334;DHT22;1679;50.392;8.008;2023-12-20T11:50:15;6.50;99.90
3334;DHT22;1679;50.392;8.008;2023-12-20T11:52:41;6.50;99.90
3334;DHT22;1679;50.392;8.008;2023-12-20T11:55:06;6.40;99.90
3334;DHT22;1679;50.392;8.008;2023-12-20T11:57:33;6.40;99.90
3334;DHT22;1679;50.392;8.008;2023-12-20T11:59:58;6.40;99.90
3334;DHT22;1679;50.392;8.008;2023-12-20T12:02:24;6.40;99.90
3334;DHT22;1679;50.392;8.008;2023-12-20T12:04:50;6.40;99.90
3334;DHT22;1679;50.392;8.008;2023-12-20T12:07:18;6.40;99.90
3334;DHT22;1679;50.392;8.008;2023-12-20T12:09:45;6.40;99.90
3334;DHT22;1679;50.392;8.008;2023-12-20T12:12:12;6.30;99.90
3334;DHT22;1679;50.392;8.008;2023-12-20T12:14:38;6.40;99.90
3334;DHT22;1679;50.392;8.008;2023-12-20T12:17:04;6.30;99.90
3334;DHT22;1679;50.392;8.008;2023-12-20T12:19:30;6.30;99.90
3334;DHT22;1679;50.392;8.008;2023-12-20T12:22:08;6.30;99.90
3334;DHT22;1679;50.392;8.008;2023-12-20T12:24:36;6.30;99.90
3334;DHT22;1679;50.392;8.008;2023-12-20T12:27:02;6.20;99.90
3334;DHT22;1679;50.392;8.008;2023-12-20T12:29:29;6.20;99.90
3334;DHT22;1679;50.392;8.008;2023-12-20T12:31:54;6.20;99.90
3334;DHT22;1679;50.392;8.008;2023-12-20T12:34:20;6.20;99.90
3334;DHT22;1679;50.392;8.008;2023-12-20T12:36:46;6.20;99.90
3334;DHT22;1679;50.392;8.008;2023-12-20T12:39:15;6.30;99.90
3334;DHT22;1679;50.392;8.008;2023-12-20T12:41:43;6.30;99.90
3334;DHT22;1679;50.392;8.008;2023-12-20T12:44:08;6.30;99.90
3334;DHT22;1679;50.392;8.008;2023-12-20T12:46:34;6.20;99.90
3334;DHT22;1679;50.392;8.008;2023-12-20T12:49:00;6.20;99.90
3334;DHT22;1679;50.392;8.008;2023-12-20T12:51:25;6.20;99.90
3334;DHT22;1679;50.392;8.008;2023-12-20T12:53:51;6.20;99.90
3334;DHT22;1679;50.392;8.008;2023-12-20T12:56:17;6.20;99.90
3334;DHT22;1679;50.392;8.008;2023-12-20T12:58:42;6.10;99.90
3334;DHT22;1679;50.392;8.008;2023-12-20T13:01:08;6.10;99.90
3334;DHT22;1679;50.392;8.008;2023-12-20T13:03:34;6.20;99.90
3334;DHT22;1679;50.392;8.008;2023-12-20T13:06:00;6.20;99.90
3334;DHT22;1679;50.392;8.008;2023-12-20T13:08:26;6.20;99.90
3334;DHT22;1679;50.392;8.008;2023-12-20T13:10:51;6.30;99.90
3334;DHT22;1679;50.392;8.008;2023-12-20T13:13:17;6.30;99.90
3334;DHT22;1679;50.392;8.008;2023-12-20T13:15:43;6.30;99.90
3334;DHT22;1679;50.392;8.008;2023-12-20T13:18:16;6.40;99.90
3334;DHT22;1679;50.392;8.008;2023-12-20T13:20:41;6.40;99.90
3334;DHT22;1679;50.392;8.008;2023-12-20T13:23:07;6.40;99.90
3334;DHT22;1679;50.392;8.008;2023-12-20T13:25:33;6.50;99.90
3334;DHT22;1679;50.392;8.008;2023-12-20T13:27:58;6.60;99.90
3334;DHT22;1679;50.392;8.008;2023-12-20T13:30:24;6.60;99.90
3334;DHT22;1679;50.392;8.008;2023-12-20T13:32:50;6.60;99.90
3334;DHT22;1679;50.392;8.008;2023-12-20T13:35:15;6.60;99.90
3334;DHT22;1679;50.392;8.008;2023-12-20T13:37:41;6.60;99.90
3334;DHT22;1679;50.392;8.008;2023-12-20T13:40:07;6.60;99.90
3334;DHT22;1679;50.392;8.008;2023-12-20T13:42:33;6.70;99.90
3334;DHT22;1679;50.392;8.008;2023-12-20T13:44:59;6.70;99.90
3334;DHT22;1679;50.392;8.008;2023-12-20T13:47:24;6.70;99.90
3334;DHT22;1679;50.392;8.008;2023-12-20T13:49:49;6.70;99.90
3334;DHT22;1679;50.392;8.008;2023-12-20T13:52:15;6.60;99.90
3334;DHT22;1679;50.392;8.008;2023-12-20T13:54:41;6.50;99.90
3334;DHT22;1679;50.392;8.008;2023-12-20T13:57:07;6.50;99.90
3334;DHT22;1679;50.392;8.008;2023-12-20T13:59:32;6.40;99.90
3334;DHT22;1679;50.392;8.008;2023-12-20T14:01:58;6.40;99.90
3334;DHT22;1679;50.392;8.008;2023-12-20T14:04:23;6.30;99.90
3334;DHT22;1679;50.392;8.008;2023-12-20T14:06:49;6.30;99.90
3334;DHT22;1679;50.392;8.008;2023-12-20T14:09:14;6.30;99.90
3334;DHT22;1679;50.392;8.008;2023-12-20T14:11:41;6.30;99.90
3334;DHT22;1679;50.392;8.008;2023-12-20T14:14:09;6.30;99.90
3334;DHT22;1679;50.392;8.008;2023-12-20T14:16:35;6.30;99.90
3334;DHT22;1679;50.392;8.008;2023-12-20T14:19:01;6.20;99.90
3334;DHT22;1679;50.392;8.008;2023-12-20T14:21:28;6.30;99.90
3334;DHT22;1679;50.392;8.008;2023-12-20T14:23:54;6.30;99.90
3334;DHT22;1679;50.392;8.008;2023-12-20T14:26:19;6.30;99.90
3334;DHT22;1679;50.392;8.008;2023-12-20T14:28:45;6.40;99.90
3334;DHT22;1679;50.392;8.008;2023-12-20T14:31:10;6.40;99.90
3334;DHT22;1679;50.392;8.008;2023-12-20T14:33:37;6.40;99.90
3334;DHT22;1679;50.392;8.008;2023-12-20T14:36:04;6.40;99.90
3334;DHT22;1679;50.392;8.008;2023-12-20T14:38:31;6.40;99.90
3334;DHT22;1679;50.392;8.008;2023-12-20T14:40:56;6.40;99.90
3334;DHT22;1679;50.392;8.008;2023-12-20T14:43:22;6.40;99.90
3334;DHT22;1679;50.392;8.008;2023-12-20T14:45:48;6.40;99.90
3334;DHT22;1679;50.392;8.008;2023-12-20T14:48:14;6.40;99.90
3334;DHT22;1679;50.392;8.008;2023-12-20T14:50:39;6.40;99.90
3334;DHT22;1679;50.392;8.008;2023-12-20T14:53:06;6.40;99.90
3334;DHT22;1679;50.392;8.008;2023-12-20T14:55:32;6.40;99.90
3334;DHT22;1679;50.392;8.008;2023-12-20T14:57:59;6.40;99.90
3334;DHT22;1679;50.392;8.008;2023-12-20T15:00:25;6.40;99.90
3334;DHT22;1679;50.392;8.008;2023-12-20T15:02:50;6.40;99.90
3334;DHT22;1679;50.392;8.008;2023-12-20T15:05:16;6.40;99.90
3334;DHT22;1679;50.392;8.008;2023-12-20T15:07:43;6.40;99.90
3334;DHT22;1679;50.392;8.008;2023-12-20T15:10:08;6.40;99.90
3334;DHT22;1679;50.392;8.008;2023-12-20T15:12:34;6.40;99.90
3334;DHT22;1679;50.392;8.008;2023-12-20T15:15:00;6.30;99.90
3334;DHT22;1679;50.392;8.008;2023-12-20T15:17:25;6.30;99.90
3334;DHT22;1679;50.392;8.008;2023-12-20T15:19:52;6.30;99.90
3334;DHT22;1679;50.392;8.008;2023-12-20T15:22:17;6.30;99.90
3334;DHT22;1679;50.392;8.008;2023-12-20T15:24:43;6.30;99.90
3334;DHT22;1679;50.392;8.008;2023-12-20T15:27:11;6.30;99.90
3334;DHT22;1679;50.392;8.008;2023-12-20T15:29:36;6.30;99.90
3334;DHT22;1679;50.392;8.008;2023-12-20T15:32:02;6.30;99.90
3334;DHT22;1679;50.392;8.008;2023-12-20T15:34:29;6.30;99.90
3334;DHT22;1679;50.392;8.008;2023-12-20T15:36:55;6.30;99.90
3334;DHT22;1679;50.392;8.008;2023-12-20T15:39:20;6.30;99.90
3334;DHT22;1679;50.392;8.008;2023-12-20T15:41:46;6.30;99.90
3334;DHT22;1679;50.392;8.008;2023-12-20T15:44:12;6.30;99.90
3334;DHT22;1679;50.392;8.008;2023-12-20T15:46:38;6.20;99.90
3334;DHT22;1679;50.392;8.008;2023-12-20T15:49:04;6.20;99.90
3334;DHT22;1679;50.392;8.008;2023-12-20T15:51:30;6.10;99.90
3334;DHT22;1679;50.392;8.008;2023-12-20T15:53:55;6.10;99.90
3334;DHT22;1679;50.392;8.008;2023-12-20T15:56:22;6.00;99.90
3334;DHT22;1679;50.392;8.008;2023-12-20T15:58:47;6.00;99.90
3334;DHT22;1679;50.392;8.008;2023-12-20T16:01:14;6.00;99.90
3334;DHT22;1679;50.392;8.008;2023-12-20T16:03:39;6.00;99.90
3334;DHT22;1679;50.392;8.008;2023-12-20T16:06:05;5.90;99.90
3334;DHT22;1679;50.392;8.008;2023-12-20T16:08:30;5.90;99.90
3334;DHT22;1679;50.392;8.008;2023-12-20T16:10:56;5.90;99.90
3334;DHT22;1679;50.392;8.008;2023-12-20T16:13:23;5.90;99.90